Home > Products > Valid Products > MTR

000
SAUS44 KLCH 251958
MTRP92
METAR KP92 251953Z AUTO VRB06KT 29/25 A3010 RMK AO1 SLP190 T02940250





000
SAUS44 KLCH 251858
MTRP92
METAR KP92 251853Z AUTO 14008KT 110V170 29/25 A3010 RMK AO1 SLP191
T02890250





000
SAUS44 KLCH 251358
MTRP92
METAR KP92 251353Z AUTO VRB06KT 28/24 A3010 RMK AO1 SLP192 T02780244





000
SAUS44 KLCH 251259
MTRP92
METAR KP92 251253Z AUTO 14005KT 26/24 A3009 RMK AO1 SLP189 T02610244





000
SAUS44 KLCH 251158
MTRP92
METAR KP92 251153Z AUTO 13004KT 25/24 A3007 RMK AO1 SLP183 T02500239
10250 20244 53013





000
SAUS44 KLCH 250658
MTRP92
METAR KP92 250653Z AUTO VRB04KT 25/24 A3004 RMK AO1 SLP173 T02500239





000
SAUS44 KLCH 250558
MTRP92
METAR KP92 250553Z AUTO 13007KT 25/24 A3006 RMK AO1 SLP179 T02500239
10272 20250 402940217 50001





000
SAUS44 KLCH 250357
MTRP92
METAR KP92 250353Z AUTO 13005KT 26/24 A3008 RMK AO1 SLP184 T02560244





000
SAUS44 KLCH 250059
MTRP92
METAR KP92 250053Z AUTO 14006KT 26/23 A3004 RMK AO1 SLP171 T02610233





000
SAUS44 KLCH 241757
MTRP92
METAR KP92 241753Z AUTO 15008KT 120V180 28/23 A3006 RMK AO1 SLP179
T02830233 10289 20228 50005





000
SAUS44 KLCH 241458
MTRP92
METAR KP92 241453Z AUTO 12007KT 27/23 A3005 RMK AO1 SLP174 T02720228
53018





000
SAUS44 KLCH 241257
MTRP92
METAR KP92 241253Z AUTO 12007KT 24/23 A3001 RMK AO1 SLP161 T02440228





000
SAUS44 KLCH 241100
MTRP92
METAR KP92 241053Z AUTO 11003KT 22/21 A2997 RMK AO1 SLP149 T02220211





000
SAUS44 KLCH 240557
MTRP92
METAR KP92 240553Z AUTO 00000KT 22/22 A2998 RMK AO1 SLP152 T02220217
10267 20222 402890211 51013





000
SAUS44 KLCH 240458
MTRP92
METAR KP92 240453Z AUTO 00000KT 23/22 A2998 RMK AO1 SLP151 T02330222





000
SAUS44 KLCH 240100
MTRP92
METAR KP92 240053Z AUTO VRB03KT 25/22 A2991 RMK AO1 SLP129 T02500217





000
SAUS44 KLCH 232357
MTRP92
METAR KP92 232353Z AUTO 14007KT 27/22 A2990 RMK AO1 SLP124 T02670222
10289 20267 56009





000
SAUS44 KLCH 232300
MTRP92
METAR KP92 232253Z AUTO VRB04KT 28/22 A2990 RMK AO1 SLP125 T02780222





000
SAUS44 KLCH 231800
MTRP92
METAR KP92 231753Z AUTO 13009KT 28/20 A2997 RMK AO1 SLP149 T02780200
10283 20217 58000





000
SAUS44 KLCH 231657
MTRP92
METAR KP92 231653Z AUTO 12007G15KT 27/20 A2998 RMK AO1 SLP152
T02720200





000
SAUS44 KLCH 231557
MTRP92
METAR KP92 231553Z AUTO 12007KT 27/21 A2998 RMK AO1 SLP152 T02670206





000
SAUS44 KLCH 231458
MTRP92
METAR KP92 231453Z AUTO 12009KT 26/20 A2997 RMK AO1 SLP149 T02610200
53008





000
SAUS44 KLCH 231357
MTRP92
METAR KP92 231353Z AUTO 12007KT 25/22 A2996 RMK AO1 SLP146 T02500217
$





000
SAUS44 KLCH 231100
MTRP92
METAR KP92 231053Z AUTO 00000KT 21/21 A2993 RMK AO1 SLP135 T02110211
$





000
SAUS44 KLCH 230957
MTRP92
METAR KP92 230953Z AUTO 00000KT 21/21 A2993 RMK AO1 SLP134 T02110211
$





000
SAUS44 KLCH 230700
MTRP92
METAR KP92 230653Z AUTO 00000KT 22/21 A2993 RMK AO1 SLP135 T02170211
$





000
SAUS44 KLCH 230557
MTRP92
METAR KP92 230553Z AUTO 00000KT 22/21 A2994 RMK AO1 SLP139 T02170211
10267 20217 402780217 51007 $





000
SAUS44 KLCH 230457
MTRP92
METAR KP92 230453Z AUTO 00000KT 22/21 A2994 RMK AO1 SLP139 T02170211
$





000
SAUS44 KLCH 230157
MTRP92
METAR KP92 230153Z AUTO 00000KT 23/22 A2992 RMK AO1 SLP131 T02330222
$





000
SAUS44 KLCH 230059
MTRP92
METAR KP92 230053Z AUTO 00000KT 25/22 A2991 RMK AO1 SLP129 T02500222
$





000
SAUS44 KLCH 222357
MTRP92
METAR KP92 222353Z AUTO 12003KT 27/22 A2991 RMK AO1 SLP129 T02670217
10278 20256 55010 $





    US Dept of Commerce
    National Oceanic and Atmospheric Administration
    National Weather Service
    1325 East West Highway
    Silver Spring, MD 20910
    Page Author: NWS Internet Services Team
Disclaimer
Information Quality
Credits
Glossary
Privacy Policy
Freedom of Information Act (FOIA)
About Us
Career Opportunities